createdAt,value
2018-03-27T00:02:17.561Z,90.50
2018-03-27T00:04:45.009Z,90.00
2018-03-27T00:07:12.450Z,89.60
2018-03-27T00:09:39.925Z,90.10
2018-03-27T00:12:07.391Z,90.20
2018-03-27T00:14:34.826Z,90.50
2018-03-27T00:17:02.288Z,90.20
2018-03-27T00:19:29.716Z,90.30
2018-03-27T00:21:57.199Z,90.60
2018-03-27T00:24:24.635Z,90.50
2018-03-27T00:27:00.468Z,90.40
2018-03-27T00:29:40.546Z,90.50
2018-03-27T00:32:19.867Z,90.40
2018-03-27T00:34:59.333Z,90.70
2018-03-27T00:37:38.500Z,90.90
2018-03-27T00:40:17.793Z,90.80
2018-03-27T00:42:49.771Z,91.10
2018-03-27T00:45:17.258Z,91.20
2018-03-27T00:47:44.698Z,91.10
2018-03-27T00:50:12.465Z,90.80
2018-03-27T00:52:39.922Z,90.50
2018-03-27T00:55:07.391Z,90.50
2018-03-27T00:57:34.887Z,90.70
2018-03-27T01:00:03.093Z,88.30
2018-03-27T01:02:30.560Z,88.30
2018-03-27T01:05:12.660Z,89.60
2018-03-27T01:07:40.195Z,89.50
2018-03-27T01:10:07.603Z,89.70
2018-03-27T01:12:35.056Z,88.80
2018-03-27T01:15:02.522Z,87.50
2018-03-27T01:17:29.952Z,87.10
2018-03-27T01:19:57.638Z,87.50
2018-03-27T01:22:25.681Z,86.40
2018-03-27T01:24:53.116Z,86.70
2018-03-27T01:27:20.574Z,87.00
2018-03-27T01:29:48.049Z,87.70
2018-03-27T01:32:15.619Z,87.90
2018-03-27T01:34:43.069Z,88.40
2018-03-27T01:37:10.536Z,88.00
2018-03-27T01:39:37.983Z,88.40
2018-03-27T01:42:06.353Z,87.90
2018-03-27T01:44:33.790Z,89.10
2018-03-27T01:47:01.276Z,90.20
2018-03-27T01:49:28.933Z,90.40
2018-03-27T01:51:56.387Z,90.60
2018-03-27T01:54:25.536Z,90.40
2018-03-27T01:56:52.979Z,90.40
2018-03-27T01:59:21.426Z,90.80
2018-03-27T02:01:48.866Z,91.10
2018-03-27T02:04:16.321Z,90.30
2018-03-27T02:06:43.792Z,90.20
2018-03-27T02:09:11.225Z,90.20
2018-03-27T02:11:45.183Z,90.30
2018-03-27T02:14:18.271Z,90.30
2018-03-27T02:16:51.396Z,90.20
2018-03-27T02:19:25.246Z,91.60
2018-03-27T02:21:52.200Z,91.60
2018-03-27T02:24:21.561Z,91.90
2018-03-27T02:26:49.799Z,91.80
2018-03-27T02:29:17.265Z,91.70
2018-03-27T02:31:44.725Z,91.10
2018-03-27T02:34:12.208Z,91.50
2018-03-27T02:36:39.639Z,91.00
2018-03-27T02:39:07.097Z,90.70
2018-03-27T02:41:34.538Z,90.90
2018-03-27T02:44:02.021Z,90.80
2018-03-27T02:46:29.485Z,91.00
2018-03-27T02:48:56.918Z,90.70
2018-03-27T02:51:24.913Z,90.60
2018-03-27T02:53:52.352Z,90.50
2018-03-27T02:56:19.813Z,90.40
2018-03-27T02:58:47.279Z,90.30
2018-03-27T03:01:14.720Z,90.40
2018-03-27T03:03:42.155Z,90.30
2018-03-27T03:06:09.752Z,90.60
2018-03-27T03:08:37.193Z,90.90
2018-03-27T03:11:06.768Z,90.80
2018-03-27T03:13:34.205Z,90.90
2018-03-27T03:16:01.652Z,91.80
2018-03-27T03:18:29.866Z,92.00
2018-03-27T03:20:57.301Z,92.00
2018-03-27T03:23:24.939Z,92.20
2018-03-27T03:25:52.383Z,92.20
2018-03-27T03:28:19.881Z,92.30
2018-03-27T03:30:48.055Z,92.70
2018-03-27T03:33:15.497Z,92.70
2018-03-27T03:35:43.717Z,92.90
2018-03-27T03:38:11.153Z,92.90
2018-03-27T03:40:38.610Z,93.00
2018-03-27T03:43:06.046Z,92.90
2018-03-27T03:45:33.513Z,93.00
2018-03-27T03:48:00.981Z,92.80
2018-03-27T03:50:28.404Z,92.80
2018-03-27T03:52:56.630Z,92.40
2018-03-27T03:55:25.059Z,92.40
2018-03-27T03:57:52.503Z,92.90
2018-03-27T04:00:19.970Z,92.90
2018-03-27T04:02:47.405Z,93.00
2018-03-27T04:05:14.850Z,93.00
2018-03-27T04:07:42.306Z,92.70
2018-03-27T04:10:09.743Z,92.70
2018-03-27T04:12:37.181Z,92.50
2018-03-27T04:15:04.620Z,92.70
2018-03-27T04:17:32.077Z,92.40
2018-03-27T04:19:59.505Z,92.30
2018-03-27T04:22:26.945Z,92.90
2018-03-27T04:24:54.470Z,92.70
2018-03-27T04:27:22.686Z,92.60
2018-03-27T04:29:50.129Z,92.60
2018-03-27T04:32:17.574Z,92.50
2018-03-27T04:34:45.001Z,92.60
2018-03-27T04:37:13.224Z,92.80
2018-03-27T04:39:40.682Z,92.80
2018-03-27T04:42:08.101Z,92.90
2018-03-27T04:44:36.346Z,93.20
2018-03-27T04:47:03.801Z,93.10
2018-03-27T04:49:31.271Z,93.50
2018-03-27T04:51:58.709Z,93.60
2018-03-27T04:54:26.147Z,93.60
2018-03-27T04:56:53.595Z,93.50
2018-03-27T04:59:21.090Z,93.50
2018-03-27T05:01:48.517Z,93.50
2018-03-27T05:04:15.994Z,93.50
2018-03-27T05:06:43.961Z,93.20
2018-03-27T05:09:11.421Z,93.10
2018-03-27T05:11:38.900Z,92.90
2018-03-27T05:14:06.348Z,92.90
2018-03-27T05:16:33.773Z,92.70
2018-03-27T05:19:01.282Z,92.70
2018-03-27T05:21:28.717Z,93.30
2018-03-27T05:23:56.211Z,93.70
2018-03-27T05:26:25.469Z,94.00
2018-03-27T05:28:53.622Z,94.00
2018-03-27T05:31:21.057Z,94.00
2018-03-27T05:33:48.480Z,94.10
2018-03-27T05:36:15.906Z,94.50
2018-03-27T05:38:43.382Z,95.10
2018-03-27T05:41:10.766Z,95.30
2018-03-27T05:43:39.031Z,95.00
2018-03-27T05:46:06.477Z,94.90
2018-03-27T05:48:33.911Z,94.50
2018-03-27T05:51:02.670Z,94.40
2018-03-27T05:53:30.860Z,93.90
2018-03-27T05:55:58.313Z,93.90
2018-03-27T05:58:26.497Z,93.70
2018-03-27T06:00:53.914Z,93.70
2018-03-27T06:03:22.137Z,94.20
2018-03-27T06:05:50.453Z,94.10
2018-03-27T06:08:18.661Z,94.50
2018-03-27T06:10:46.115Z,94.50
2018-03-27T06:13:13.561Z,94.40
2018-03-27T06:15:41.770Z,94.60
2018-03-27T06:18:09.230Z,94.60
2018-03-27T06:20:36.673Z,94.40
2018-03-27T06:23:04.080Z,94.20
2018-03-27T06:25:31.523Z,93.00
2018-03-27T06:27:58.957Z,92.70
2018-03-27T06:30:26.421Z,92.20
2018-03-27T06:32:54.621Z,91.60
2018-03-27T06:35:22.057Z,91.60
2018-03-27T06:37:49.517Z,90.90
2018-03-27T06:40:16.975Z,90.20
2018-03-27T06:42:44.413Z,90.10
2018-03-27T06:45:11.868Z,90.00
2018-03-27T06:47:39.303Z,90.00
2018-03-27T06:50:07.505Z,86.60
2018-03-27T06:52:34.936Z,86.60
2018-03-27T06:55:02.370Z,84.70
2018-03-27T06:57:29.800Z,82.80
2018-03-27T06:59:57.236Z,80.70
2018-03-27T07:02:25.370Z,78.70
2018-03-27T07:04:52.776Z,76.20
2018-03-27T07:07:20.224Z,75.80
2018-03-27T07:09:47.654Z,73.50
2018-03-27T07:12:15.821Z,73.80
2018-03-27T07:14:43.290Z,73.30
2018-03-27T07:17:10.720Z,73.00
2018-03-27T07:19:38.143Z,71.10
2018-03-27T07:22:05.570Z,71.30
2018-03-27T07:24:32.991Z,69.60
2018-03-27T07:27:01.201Z,71.00
2018-03-27T07:29:28.643Z,70.80
2018-03-27T07:31:56.840Z,74.20
2018-03-27T07:34:25.979Z,75.00
2018-03-27T07:36:53.431Z,75.00
2018-03-27T07:39:20.870Z,77.30
2018-03-27T07:41:48.330Z,79.90
2018-03-27T07:44:15.761Z,80.70
2018-03-27T07:46:43.188Z,78.40
2018-03-27T07:49:11.405Z,76.20
2018-03-27T07:51:38.837Z,76.20
2018-03-27T07:54:06.348Z,73.40
2018-03-27T07:56:33.767Z,72.60
2018-03-27T07:59:01.225Z,72.50
2018-03-27T08:01:28.661Z,73.70
2018-03-27T08:03:56.861Z,71.50
2018-03-27T08:06:24.305Z,71.50
2018-03-27T08:08:51.741Z,73.20
2018-03-27T08:11:19.967Z,70.00
2018-03-27T08:13:47.378Z,69.90
2018-03-27T08:16:15.589Z,68.30
2018-03-27T08:18:43.029Z,68.20
2018-03-27T08:21:10.460Z,67.80
2018-03-27T08:23:38.713Z,69.20
2018-03-27T08:26:06.239Z,69.10
2018-03-27T08:28:33.691Z,67.20
2018-03-27T08:31:01.151Z,65.90
2018-03-27T08:33:30.203Z,66.70
2018-03-27T08:35:58.072Z,65.20
2018-03-27T08:38:25.859Z,62.50
2018-03-27T08:40:53.326Z,63.90
2018-03-27T08:43:20.764Z,61.60
2018-03-27T08:45:48.992Z,58.60
2018-03-27T08:48:17.186Z,56.50
2018-03-27T08:50:44.631Z,56.50
2018-03-27T08:53:12.161Z,54.70
2018-03-27T08:55:39.587Z,53.60
2018-03-27T08:58:07.816Z,46.80
2018-03-27T09:00:35.249Z,46.70
2018-03-27T09:03:02.681Z,45.30
2018-03-27T09:05:30.129Z,42.60
2018-03-27T09:07:58.348Z,37.90
2018-03-27T09:10:25.781Z,37.80
2018-03-27T09:12:53.229Z,34.50
2018-03-27T09:15:20.674Z,34.30
2018-03-27T09:17:48.881Z,30.80
2018-03-27T09:20:16.328Z,30.70
2018-03-27T09:22:43.758Z,29.20
2018-03-27T09:25:11.969Z,28.40
2018-03-27T09:27:39.393Z,28.30
2018-03-27T09:30:07.599Z,27.20
2018-03-27T09:32:35.091Z,27.10
2018-03-27T09:35:02.563Z,25.60
2018-03-27T09:37:30.003Z,24.70
2018-03-27T09:39:58.214Z,24.00
2018-03-27T09:42:25.757Z,24.00
2018-03-27T09:44:53.188Z,22.50
2018-03-27T09:47:20.632Z,21.70
2018-03-27T09:49:48.629Z,22.80
2018-03-27T09:52:16.126Z,20.80
2018-03-27T09:54:43.889Z,19.80
2018-03-27T09:57:11.335Z,20.50
2018-03-27T09:59:38.772Z,20.90
2018-03-27T10:02:06.418Z,21.20
2018-03-27T10:04:33.841Z,20.70
2018-03-27T10:07:01.294Z,20.70
2018-03-27T10:09:28.733Z,19.90
2018-03-27T10:11:56.253Z,20.10
2018-03-27T10:14:24.345Z,20.00
2018-03-27T10:16:51.815Z,19.50
2018-03-27T10:19:19.241Z,20.90
2018-03-27T10:21:46.685Z,21.50
2018-03-27T10:24:14.117Z,21.20
2018-03-27T10:26:41.593Z,21.90
2018-03-27T10:29:09.037Z,21.30
2018-03-27T10:31:36.478Z,21.50
2018-03-27T10:34:04.666Z,24.50
2018-03-27T10:36:32.129Z,24.50
2018-03-27T10:38:59.564Z,25.80
2018-03-27T10:41:27.782Z,26.30
2018-03-27T10:43:55.217Z,26.20
2018-03-27T10:46:22.663Z,26.40
2018-03-27T10:48:50.852Z,27.50
2018-03-27T10:51:18.302Z,27.50
2018-03-27T10:53:45.733Z,27.30
2018-03-27T10:56:13.954Z,26.90
2018-03-27T10:58:41.397Z,26.80
2018-03-27T11:01:08.838Z,26.80
2018-03-27T11:03:37.040Z,27.00
2018-03-27T11:06:04.475Z,27.00
2018-03-27T11:08:31.920Z,26.80
2018-03-27T11:11:00.142Z,26.30
2018-03-27T11:13:27.577Z,26.30
2018-03-27T11:15:55.908Z,26.40
2018-03-27T11:18:23.340Z,26.60
2018-03-27T11:20:50.799Z,26.70
2018-03-27T11:23:18.289Z,27.20
2018-03-27T11:25:45.717Z,28.40
2018-03-27T11:28:13.173Z,28.10
2018-03-27T11:30:40.615Z,28.40
2018-03-27T11:33:08.066Z,29.00
2018-03-27T11:35:35.497Z,28.80
2018-03-27T11:38:03.706Z,29.40
2018-03-27T11:40:31.145Z,29.40
2018-03-27T11:42:58.579Z,29.10
2018-03-27T11:45:26.016Z,29.10
2018-03-27T11:47:53.456Z,29.60
2018-03-27T11:50:20.904Z,29.50
2018-03-27T11:52:48.348Z,29.30
2018-03-27T11:55:15.774Z,29.20
2018-03-27T11:57:43.980Z,29.40
2018-03-27T12:00:11.485Z,29.40
2018-03-27T12:02:38.944Z,29.50
2018-03-27T12:05:06.577Z,29.00
2018-03-27T12:07:34.024Z,29.20
2018-03-27T12:10:01.472Z,29.80
2018-03-27T12:12:28.928Z,30.20
2018-03-27T12:14:56.366Z,30.20
2018-03-27T12:17:23.816Z,30.50
2018-03-27T12:19:52.025Z,30.90
2018-03-27T12:22:19.481Z,30.90
2018-03-27T12:24:46.951Z,31.30
2018-03-27T12:27:14.380Z,31.40
2018-03-27T12:29:41.813Z,32.00
2018-03-27T12:32:10.022Z,32.20
2018-03-27T12:34:37.479Z,32.20
2018-03-27T12:37:04.932Z,32.80
2018-03-27T12:39:32.386Z,32.50
2018-03-27T12:41:59.815Z,32.20
2018-03-27T12:44:28.039Z,33.40
2018-03-27T12:46:55.474Z,33.50
2018-03-27T12:49:22.900Z,33.40
2018-03-27T12:51:51.117Z,33.80
2018-03-27T12:54:18.561Z,33.70
2018-03-27T12:56:45.997Z,33.90
2018-03-27T12:59:14.211Z,34.40
2018-03-27T13:01:41.641Z,34.40
2018-03-27T13:04:09.087Z,34.80
2018-03-27T13:06:37.282Z,35.00
2018-03-27T13:09:04.720Z,34.90
2018-03-27T13:11:33.003Z,35.30
2018-03-27T13:14:01.242Z,35.70
2018-03-27T13:16:29.432Z,35.10
2018-03-27T13:18:56.873Z,35.10
2018-03-27T13:21:24.318Z,35.20
2018-03-27T13:23:51.762Z,35.00
2018-03-27T13:26:19.227Z,35.10
2018-03-27T13:28:46.714Z,35.60
2018-03-27T13:31:14.192Z,34.00
2018-03-27T13:33:42.393Z,34.50
2018-03-27T13:36:09.816Z,33.80
2018-03-27T13:38:38.023Z,33.70
2018-03-27T13:41:05.461Z,33.60
2018-03-27T13:43:33.672Z,34.40
2018-03-27T13:46:01.117Z,34.40
2018-03-27T13:48:28.583Z,34.80
2018-03-27T13:50:56.007Z,34.60
2018-03-27T13:53:24.248Z,34.90
2018-03-27T13:55:51.710Z,34.80
2018-03-27T13:58:19.163Z,35.00
2018-03-27T14:00:46.598Z,35.30
2018-03-27T14:03:14.048Z,36.00
2018-03-27T14:05:41.502Z,36.00
2018-03-27T14:08:09.180Z,36.40
2018-03-27T14:10:36.625Z,36.90
2018-03-27T14:13:10.930Z,37.00
2018-03-27T14:15:39.056Z,37.40
2018-03-27T14:18:06.484Z,38.20
2018-03-27T14:20:34.332Z,38.40
2018-03-27T14:23:01.786Z,38.70
2018-03-27T14:25:29.220Z,38.70
2018-03-27T14:27:57.432Z,38.60
2018-03-27T14:30:24.912Z,38.60
2018-03-27T14:32:52.342Z,39.30
2018-03-27T14:35:19.786Z,40.40
2018-03-27T14:37:47.218Z,40.90
2018-03-27T14:40:15.513Z,41.90
2018-03-27T14:42:43.699Z,42.30
2018-03-27T14:45:11.166Z,42.30
2018-03-27T14:47:38.710Z,45.60
2018-03-27T14:50:06.219Z,46.20
2018-03-27T14:52:34.462Z,45.80
2018-03-27T14:55:01.911Z,48.30
2018-03-27T14:57:29.355Z,50.70
2018-03-27T14:59:57.540Z,58.60
2018-03-27T15:02:24.969Z,58.60
2018-03-27T15:04:53.255Z,62.20
2018-03-27T15:07:20.653Z,62.10
2018-03-27T15:09:49.303Z,63.60
2018-03-27T15:12:16.774Z,66.00
2018-03-27T15:14:44.214Z,65.50
2018-03-27T15:17:12.418Z,67.10
2018-03-27T15:19:39.865Z,67.10
2018-03-27T15:22:07.312Z,67.60
2018-03-27T15:24:35.700Z,70.70
2018-03-27T15:27:03.894Z,69.30
2018-03-27T15:29:31.330Z,69.20
2018-03-27T15:31:58.755Z,69.80
2018-03-27T15:34:26.500Z,70.00
2018-03-27T15:36:53.937Z,71.70
2018-03-27T15:39:21.396Z,73.60
2018-03-27T15:41:48.826Z,74.10
2018-03-27T15:44:16.279Z,75.10
2018-03-27T15:46:43.719Z,74.40
2018-03-27T15:49:13.723Z,73.80
2018-03-27T15:51:42.030Z,74.90
2018-03-27T15:54:10.230Z,74.30
2018-03-27T15:56:37.689Z,74.30
2018-03-27T15:59:05.540Z,74.70
2018-03-27T16:01:32.985Z,76.90
2018-03-27T16:04:01.225Z,78.10
2018-03-27T16:06:29.809Z,78.10
2018-03-27T16:09:00.586Z,78.40
2018-03-27T16:11:28.797Z,77.90
2018-03-27T16:13:56.242Z,77.80
2018-03-27T16:16:23.681Z,78.30
2018-03-27T16:18:51.152Z,78.60
2018-03-27T16:21:18.593Z,79.10
2018-03-27T16:23:46.038Z,79.80
2018-03-27T16:26:13.481Z,81.00
2018-03-27T16:28:42.522Z,80.90
2018-03-27T16:31:09.992Z,80.90
2018-03-27T16:33:37.424Z,82.90
2018-03-27T16:36:04.869Z,80.90
2018-03-27T16:38:32.310Z,81.80
2018-03-27T16:41:00.522Z,84.80
2018-03-27T16:43:27.948Z,84.80
2018-03-27T16:45:56.160Z,83.30
2018-03-27T16:48:23.617Z,83.30
2018-03-27T16:50:51.055Z,84.60
2018-03-27T16:53:18.486Z,85.20
2018-03-27T16:55:46.699Z,86.70
2018-03-27T16:58:14.140Z,86.60
2018-03-27T17:00:41.618Z,86.10
2018-03-27T17:03:09.073Z,86.40
2018-03-27T17:05:36.524Z,86.30
2018-03-27T17:08:04.193Z,87.10
2018-03-27T17:10:32.098Z,86.10
2018-03-27T17:12:59.528Z,87.90
2018-03-27T17:15:26.999Z,88.50
2018-03-27T17:17:54.442Z,89.40
2018-03-27T17:20:21.876Z,89.70
2018-03-27T17:22:50.196Z,88.60
2018-03-27T17:25:17.742Z,89.40
2018-03-27T17:27:45.170Z,88.60
2018-03-27T17:30:12.619Z,87.40
2018-03-27T17:32:40.052Z,88.50
2018-03-27T17:35:07.495Z,88.90
2018-03-27T17:37:34.933Z,88.60
2018-03-27T17:40:02.383Z,90.00
2018-03-27T17:42:29.828Z,90.20
2018-03-27T17:44:57.265Z,90.30
2018-03-27T17:47:24.718Z,90.00
2018-03-27T17:49:52.157Z,90.10
2018-03-27T17:52:20.353Z,89.80
2018-03-27T17:54:47.811Z,89.80
2018-03-27T17:57:16.011Z,90.00
2018-03-27T17:59:43.464Z,90.00
2018-03-27T18:02:10.923Z,90.20
2018-03-27T18:04:38.389Z,89.40
2018-03-27T18:07:05.829Z,90.00
2018-03-27T18:09:33.271Z,90.10
2018-03-27T18:12:01.490Z,90.90
2018-03-27T18:14:28.933Z,90.90
2018-03-27T18:16:56.381Z,90.60
2018-03-27T18:19:23.827Z,90.50
2018-03-27T18:21:51.322Z,90.80
2018-03-27T18:24:18.776Z,90.20
2018-03-27T18:26:46.976Z,90.30
2018-03-27T18:29:14.406Z,90.70
2018-03-27T18:31:41.853Z,90.40
2018-03-27T18:34:09.313Z,90.00
2018-03-27T18:36:36.797Z,90.40
2018-03-27T18:39:04.267Z,91.10
2018-03-27T18:41:32.514Z,90.80
2018-03-27T18:43:59.957Z,91.30
2018-03-27T18:46:27.404Z,91.10
2018-03-27T18:48:54.881Z,91.70
2018-03-27T18:51:22.312Z,91.90
2018-03-27T18:53:49.753Z,92.00
2018-03-27T18:56:17.967Z,92.30
2018-03-27T18:58:45.510Z,92.30
2018-03-27T19:01:12.976Z,92.10
2018-03-27T19:03:40.394Z,91.40
2018-03-27T19:06:08.616Z,91.20
2018-03-27T19:08:36.089Z,91.10
2018-03-27T19:11:03.549Z,90.90
2018-03-27T19:13:31.030Z,90.60
2018-03-27T19:15:58.477Z,90.60
2018-03-27T19:18:27.113Z,90.40
2018-03-27T19:20:54.565Z,89.70
2018-03-27T19:23:22.007Z,90.00
2018-03-27T19:25:50.254Z,90.00
2018-03-27T19:28:17.684Z,90.00
2018-03-27T19:30:45.131Z,90.00
2018-03-27T19:33:12.574Z,89.70
2018-03-27T19:35:40.067Z,89.10
2018-03-27T19:38:07.560Z,90.30
2018-03-27T19:40:34.942Z,90.80
2018-03-27T19:43:02.381Z,90.60
2018-03-27T19:45:30.596Z,90.70
2018-03-27T19:47:58.041Z,90.70
2018-03-27T19:50:25.473Z,90.60
2018-03-27T19:52:53.695Z,91.00
2018-03-27T19:55:21.196Z,91.00
2018-03-27T19:57:48.657Z,91.30
2018-03-27T20:00:16.872Z,92.10
2018-03-27T20:02:44.369Z,92.10
2018-03-27T20:05:11.813Z,91.90
2018-03-27T20:07:39.261Z,91.90
2018-03-27T20:10:06.708Z,92.40
2018-03-27T20:12:34.195Z,91.90
2018-03-27T20:15:01.679Z,91.40
2018-03-27T20:17:29.147Z,90.60
2018-03-27T20:19:57.362Z,91.00
2018-03-27T20:22:24.800Z,91.00
2018-03-27T20:24:52.241Z,90.30
2018-03-27T20:27:20.461Z,91.00
2018-03-27T20:29:47.905Z,91.00
2018-03-27T20:32:15.365Z,91.20
2018-03-27T20:34:42.806Z,91.70
2018-03-27T20:37:10.254Z,91.90
2018-03-27T20:39:37.683Z,91.60
2018-03-27T20:42:05.125Z,91.70
2018-03-27T20:44:32.561Z,92.10
2018-03-27T20:47:00.044Z,92.00
2018-03-27T20:49:28.223Z,92.40
2018-03-27T20:51:55.665Z,92.40
2018-03-27T20:54:23.109Z,92.50
2018-03-27T20:56:50.561Z,92.80
2018-03-27T20:59:18.037Z,92.90
2018-03-27T21:01:45.535Z,92.80
2018-03-27T21:04:12.926Z,92.70
2018-03-27T21:06:40.373Z,92.90
2018-03-27T21:09:07.814Z,92.50
2018-03-27T21:11:36.046Z,93.10
2018-03-27T21:14:03.482Z,93.10
2018-03-27T21:16:30.918Z,93.40
2018-03-27T21:18:58.355Z,94.10
2018-03-27T21:21:27.479Z,94.00
2018-03-27T21:23:54.933Z,94.00
2018-03-27T21:26:22.366Z,93.90
2018-03-27T21:28:50.629Z,93.40
2018-03-27T21:31:18.094Z,93.40
2018-03-27T21:33:45.518Z,93.10
2018-03-27T21:36:12.954Z,93.50
2018-03-27T21:38:40.400Z,93.40
2018-03-27T21:41:07.893Z,93.00
2018-03-27T21:43:35.360Z,93.10
2018-03-27T21:46:02.787Z,93.10
2018-03-27T21:48:30.235Z,93.10
2018-03-27T21:50:57.666Z,93.50
2018-03-27T21:53:26.170Z,93.30
2018-03-27T21:55:53.593Z,93.30
2018-03-27T21:58:21.844Z,93.50
2018-03-27T22:00:49.261Z,93.50
2018-03-27T22:03:16.693Z,93.40
2018-03-27T22:05:44.130Z,93.20
2018-03-27T22:08:11.574Z,93.30
2018-03-27T22:10:39.211Z,93.50
2018-03-27T22:13:06.637Z,93.30
2018-03-27T22:15:34.065Z,93.90
2018-03-27T22:18:02.290Z,93.80
2018-03-27T22:20:29.721Z,93.90
2018-03-27T22:22:57.162Z,93.60
2018-03-27T22:25:25.352Z,93.90
2018-03-27T22:27:52.797Z,93.90
2018-03-27T22:30:21.003Z,94.00
2018-03-27T22:32:48.485Z,93.90
2018-03-27T22:35:16.680Z,93.80
2018-03-27T22:37:44.138Z,93.40
2018-03-27T22:40:11.579Z,93.60
2018-03-27T22:42:39.045Z,93.00
2018-03-27T22:45:06.473Z,93.50
2018-03-27T22:47:33.917Z,93.50
2018-03-27T22:50:01.359Z,93.80
2018-03-27T22:52:29.629Z,94.20
2018-03-27T22:54:57.841Z,94.70
2018-03-27T22:57:26.205Z,94.70
2018-03-27T22:59:53.674Z,95.10
2018-03-27T23:02:21.108Z,95.50
2018-03-27T23:04:48.557Z,94.50
2018-03-27T23:07:16.820Z,94.80
2018-03-27T23:09:44.214Z,94.80
2018-03-27T23:12:11.650Z,94.80
2018-03-27T23:14:39.856Z,94.60
2018-03-27T23:17:07.298Z,94.60
2018-03-27T23:19:34.725Z,94.30
2018-03-27T23:22:02.936Z,94.90
2018-03-27T23:24:30.382Z,94.70
2018-03-27T23:26:57.834Z,94.80
2018-03-27T23:29:26.034Z,93.50
2018-03-27T23:31:53.469Z,93.50
2018-03-27T23:34:20.912Z,93.50
2018-03-27T23:36:49.177Z,93.70
2018-03-27T23:39:16.622Z,93.60
2018-03-27T23:41:44.055Z,93.70
2018-03-27T23:44:11.521Z,93.20
2018-03-27T23:46:38.953Z,93.30
2018-03-27T23:49:06.398Z,93.40
2018-03-27T23:51:33.846Z,93.20
2018-03-27T23:54:02.051Z,94.30
2018-03-27T23:56:29.505Z,94.30
2018-03-27T23:58:56.956Z,94.20
